Time;durP1;ratioP1;P1;durP2;ratioP2;P2;SDS_P1;SDS_P2;PMS_P1;PMS_P2;Temp;Humidity;BMP_temperature;BMP_pressure;BME280_temperature;BME280_humidity;BME280_pressure;Samples;Min_cycle;Max_cycle;Signal;HPM_P1;HPM_P2
2022/07/03 00:02:26;;;;;;;0.55;0.40;;;;;;;10.57;89.04;100627.75;6252941;22;20162;-75
2022/07/03 00:04:52;;;;;;;0.30;0.30;;;;;;;10.62;89.01;100645.00;6255032;22;20061;-75
2022/07/03 00:07:18;;;;;;;0.30;0.30;;;;;;;10.60;88.57;100633.53;6255378;22;20011;-75
2022/07/03 00:09:45;;;;;;;0.40;0.28;;;;;;;10.62;88.89;100636.81;6283834;22;20311;-76
2022/07/03 00:12:11;;;;;;;1.38;0.77;;;;;;;10.69;88.23;100649.44;6254494;22;20039;-76
2022/07/03 00:14:37;;;;;;;2.47;1.08;;;;;;;10.73;88.37;100658.78;6256744;22;20012;-73
2022/07/03 00:17:02;;;;;;;2.72;1.27;;;;;;;10.63;88.37;100665.81;6229169;22;20004;-72
2022/07/03 00:19:28;;;;;;;3.50;1.08;;;;;;;10.52;88.70;100671.47;6281972;22;20490;-72
2022/07/03 00:22:04;;;;;;;5.35;0.77;;;;;;;10.29;89.46;100657.00;6279096;22;20004;-76
2022/07/03 00:24:44;;;;;;;2.88;0.65;;;;;;;10.22;89.85;100659.09;6253966;22;20932;-74
2022/07/03 00:27:40;;;;;;;1.73;0.93;;;;;;;9.99;90.24;100654.75;6280816;22;20003;-75
2022/07/03 00:30:20;;;;;;;0.85;0.68;;;;;;;9.86;90.80;100651.34;6256473;22;20007;-76
2022/07/03 00:32:48;;;;;;;4.43;0.90;;;;;;;9.89;91.16;100669.97;6256529;22;20072;-72
2022/07/03 00:35:17;;;;;;;1.17;0.63;;;;;;;9.73;92.15;100651.75;6253532;22;20004;-75
2022/07/03 00:37:43;;;;;;;2.28;0.65;;;;;;;9.76;92.05;100656.69;6281773;22;20026;-76
2022/07/03 00:40:09;;;;;;;0.82;0.50;;;;;;;9.86;92.67;100667.75;6256693;22;20003;-75
2022/07/03 00:42:38;;;;;;;1.60;0.70;;;;;;;9.87;92.45;100650.28;6256516;22;20102;-75
2022/07/03 02:40:54;;;;;;;1.73;0.77;;;;;;;9.32;91.64;100618.47;6300959;22;20019;-77
2022/07/03 02:44:12;;;;;;;;;;;;;;;;;;;;;
2022/07/03 02:47:06;;;;;;;2.40;0.98;;;;;;;9.36;91.98;100622.34;6333820;22;20030;-76
2022/07/03 02:50:14;;;;;;;;;;;;;;;;;;;;;
2022/07/03 02:52:53;;;;;;;1.17;0.80;;;;;;;9.63;91.64;100651.63;6345465;22;20026;-76
2022/07/03 02:56:13;;;;;;;;;;;;;;;;;;;;;
2022/07/03 02:59:13;;;;;;;1.30;0.80;;;;;;;9.74;91.13;100653.41;6328625;22;20026;-77
2022/07/03 03:02:14;;;;;;;4.10;0.90;;;;;;;9.79;91.51;100650.72;6344491;22;20002;-76
2022/07/03 03:05:07;;;;;;;6.28;1.27;;;;;;;9.67;91.53;100620.00;6344416;22;20010;-75
2022/07/03 03:07:59;;;;;;;4.05;0.82;;;;;;;9.69;91.55;100602.25;6315351;22;20006;-76
2022/07/03 03:10:35;;;;;;;2.88;1.13;;;;;;;9.85;92.12;100622.38;6344851;22;20059;-75
2022/07/03 03:13:47;;;;;;;5.10;0.90;;;;;;;10.04;91.74;100641.16;6342682;22;19983;-76
2022/07/03 03:16:23;;;;;;;5.22;1.15;;;;;;;10.13;91.38;100658.75;6312002;22;20013;-74
2022/07/03 03:18:49;;;;;;;5.50;0.90;;;;;;;9.94;91.64;100620.00;6293883;22;20002;-76
2022/07/03 03:21:21;;;;;;;3.25;0.80;;;;;;;10.14;91.28;100649.47;6343833;22;20574;-76
2022/07/03 03:23:52;;;;;;;1.30;0.60;;;;;;;10.19;91.11;100652.25;6318046;22;20006;-76
2022/07/03 03:26:23;;;;;;;4.18;1.00;;;;;;;10.06;91.04;100628.06;6316249;22;20033;-75
2022/07/03 03:28:49;;;;;;;2.72;0.80;;;;;;;10.25;91.03;100648.50;6318269;22;20006;-76
2022/07/03 03:31:15;;;;;;;2.33;0.60;;;;;;;10.14;91.20;100627.59;6314987;22;20306;-77
2022/07/03 03:33:51;;;;;;;1.58;0.60;;;;;;;10.36;91.36;100651.34;6318090;22;20363;-76
2022/07/03 03:36:18;;;;;;;3.20;0.73;;;;;;;10.37;91.31;100650.28;6288717;22;20003;-75
2022/07/03 03:38:45;;;;;;;3.50;0.90;;;;;;;10.30;90.44;100637.59;6340303;22;20010;-76
2022/07/03 03:41:11;;;;;;;2.75;0.68;;;;;;;10.39;90.54;100643.44;6315090;22;20310;-76
2022/07/03 03:43:37;;;;;;;3.53;0.85;;;;;;;10.34;90.50;100650.78;6343794;22;20005;-75
2022/07/03 03:46:06;;;;;;;3.00;0.80;;;;;;;10.35;90.60;100636.03;6315253;22;19991;-75
2022/07/03 03:48:39;;;;;;;3.58;0.88;;;;;;;10.42;91.00;100650.31;6315571;22;20009;-75
2022/07/03 03:51:12;;;;;;;4.15;0.85;;;;;;;10.47;91.19;100658.56;6316177;22;20367;-76
2022/07/03 03:53:38;;;;;;;1.83;0.60;;;;;;;10.40;90.81;100655.22;6315044;22;20427;-75
2022/07/03 03:56:10;;;;;;;11.63;0.93;;;;;;;10.37;91.28;100661.22;6342401;22;19999;-75
2022/07/03 03:58:38;;;;;;;5.15;1.20;;;;;;;10.18;91.23;100645.13;6314636;22;20093;-74
2022/07/03 04:01:06;;;;;;;2.33;0.80;;;;;;;10.13;91.86;100650.53;6315171;22;20508;-76
2022/07/03 04:03:36;;;;;;;2.88;0.98;;;;;;;10.14;91.64;100652.19;6318278;22;19998;-76
2022/07/03 04:06:02;;;;;;;8.15;0.95;;;;;;;9.96;91.97;100637.81;6290252;22;20007;-75
2022/07/03 04:08:37;;;;;;;3.55;0.80;;;;;;;9.96;92.18;100648.72;6317067;22;20555;-76
2022/07/03 04:11:03;;;;;;;6.32;0.50;;;;;;;9.82;92.60;100633.81;6316412;22;20082;-76
2022/07/03 04:13:29;;;;;;;1.42;0.70;;;;;;;9.83;92.72;100646.41;6318168;22;20002;-76
2022/07/03 04:15:55;;;;;;;9.38;1.05;;;;;;;9.81;92.89;100645.81;6317038;22;20071;-75
2022/07/03 04:18:20;;;;;;;1.88;0.75;;;;;;;9.86;92.78;100670.47;6319416;22;20014;-73
2022/07/03 04:20:45;;;;;;;1.13;0.47;;;;;;;9.82;93.18;100663.88;6345516;22;20007;-75
2022/07/03 04:23:11;;;;;;;0.60;0.40;;;;;;;9.78;93.40;100660.00;6292243;22;20029;-75
2022/07/03 04:25:37;;;;;;;1.63;0.50;;;;;;;9.80;93.71;100666.03;6318934;22;20007;-76
2022/07/03 04:28:02;;;;;;;1.02;0.60;;;;;;;9.78;93.62;100670.91;6266815;22;20013;-76
2022/07/03 04:30:28;;;;;;;1.05;0.60;;;;;;;9.76;93.87;100656.69;6346798;22;19999;-76
2022/07/03 04:32:53;;;;;;;1.27;0.70;;;;;;;9.78;93.58;100654.53;6317842;22;20002;-77
2022/07/03 04:35:19;;;;;;;1.73;0.52;;;;;;;9.83;93.52;100654.59;6266737;22;20014;-75
2022/07/03 04:37:45;;;;;;;1.15;0.40;;;;;;;9.95;93.50;100666.19;6293041;22;20094;-76
2022/07/03 04:40:13;;;;;;;0.88;0.38;;;;;;;10.04;93.88;100663.03;6291866;22;20103;-76
2022/07/03 04:42:39;;;;;;;1.58;0.40;;;;;;;10.16;93.20;100671.06;6317408;22;19998;-77
2022/07/03 04:45:05;;;;;;;2.00;0.70;;;;;;;10.24;92.56;100674.16;6290947;22;20003;-75
2022/07/03 04:47:30;;;;;;;2.10;0.60;;;;;;;10.41;92.68;100676.00;6291607;22;20093;-75
2022/07/03 04:49:56;;;;;;;3.25;0.65;;;;;;;10.58;92.45;100679.44;6317914;22;20663;-76
2022/07/03 04:52:22;;;;;;;3.38;0.70;;;;;;;10.68;91.46;100673.22;6291755;22;20007;-75
2022/07/03 04:54:49;;;;;;;8.15;0.93;;;;;;;10.86;91.27;100674.75;6318539;22;20048;-75
2022/07/03 04:57:14;;;;;;;1.77;0.70;;;;;;;10.99;90.38;100684.41;6290844;22;20082;-75
2022/07/03 04:59:40;;;;;;;8.15;0.80;;;;;;;11.10;90.26;100686.16;6318829;22;20007;-76
2022/07/03 05:02:05;;;;;;;3.10;0.57;;;;;;;11.24;89.90;100675.53;6291870;22;20012;-78
2022/07/03 05:04:31;;;;;;;2.10;0.40;;;;;;;11.37;89.21;100674.25;6318228;22;20017;-75
2022/07/03 05:06:56;;;;;;;0.47;0.40;;;;;;;11.50;89.41;100678.44;6291891;22;20007;-75
2022/07/03 05:09:22;;;;;;;0.70;0.40;;;;;;;11.62;89.21;100670.84;6264705;22;20414;-75
2022/07/03 05:11:47;;;;;;;1.05;0.40;;;;;;;11.78;88.39;100679.13;6319039;22;20042;-74
2022/07/03 05:14:13;;;;;;;0.30;0.30;;;;;;;11.90;88.14;100682.47;6290224;22;20010;-75
2022/07/03 05:16:38;;;;;;;4.07;0.50;;;;;;;11.96;87.74;100684.16;6292230;22;20625;-74
2022/07/03 05:19:04;;;;;;;2.80;0.63;;;;;;;11.98;87.39;100690.19;6315838;22;20007;-74
2022/07/03 05:21:30;;;;;;;5.55;0.60;;;;;;;11.98;87.45;100687.44;6346080;22;20333;-73
2022/07/03 05:24:02;;;;;;;2.78;0.52;;;;;;;12.02;87.42;100696.78;6317039;22;20007;-75
2022/07/03 05:26:27;;;;;;;2.22;0.60;;;;;;;11.94;87.12;100680.84;6316023;22;20410;-75
2022/07/03 05:28:53;;;;;;;1.42;0.50;;;;;;;12.04;86.79;100700.06;6345278;22;20048;-75
2022/07/03 05:31:21;;;;;;;2.58;0.68;;;;;;;12.10;86.51;100697.34;6314831;22;20003;-77
2022/07/03 05:33:52;;;;;;;3.08;0.70;;;;;;;12.21;86.13;100693.56;6316355;22;19995;-76
2022/07/03 05:37:20;;;;;;;;;;;;;;;;;;;;;
2022/07/03 05:39:45;;;;;;;2.45;0.55;;;;;;;12.64;84.14;100702.38;6296165;22;20061;-77
2022/07/03 05:42:11;;;;;;;1.50;0.75;;;;;;;12.78;83.92;100701.88;6317871;22;20030;-76
2022/07/03 05:44:36;;;;;;;4.75;0.82;;;;;;;12.77;83.73;100684.56;6266618;22;19999;-75
2022/07/03 05:47:19;;;;;;;2.10;0.60;;;;;;;12.88;82.81;100690.88;6341722;22;19999;-76
2022/07/03 05:49:47;;;;;;;2.70;0.70;;;;;;;13.03;82.95;100704.59;6317595;22;20032;-75
2022/07/03 05:52:13;;;;;;;10.70;0.75;;;;;;;13.08;82.35;100711.97;6316283;22;20098;-75
2022/07/03 05:54:45;;;;;;;3.63;0.98;;;;;;;13.08;81.94;100690.03;6344209;22;20007;-74
2022/07/03 05:57:14;;;;;;;2.58;0.65;;;;;;;13.28;81.96;100706.47;6314514;22;19998;-74
2022/07/03 05:59:39;;;;;;;6.30;1.58;;;;;;;13.30;81.44;100692.47;6315633;22;20046;-74
2022/07/03 06:02:08;;;;;;;2.65;1.13;;;;;;;13.40;80.91;100691.66;6313361;22;20487;-75
2022/07/03 06:04:36;;;;;;;8.27;1.20;;;;;;;13.57;80.71;100686.66;6314898;22;20074;-73
2022/07/03 06:07:02;;;;;;;1.42;0.80;;;;;;;13.82;80.00;100704.16;6312974;22;19998;-74
2022/07/03 06:09:27;;;;;;;4.25;0.90;;;;;;;14.01;78.91;100706.28;6341821;22;20456;-74
2022/07/03 06:11:55;;;;;;;6.18;0.82;;;;;;;14.05;78.56;100702.69;6289504;22;19999;-74
2022/07/03 06:14:27;;;;;;;6.85;0.98;;;;;;;14.08;78.29;100706.81;6344642;22;20009;-74
2022/07/03 06:22:33;;;;;;;6.28;1.00;;;;;;;14.17;77.92;100694.09;6333506;22;20023;-72
2022/07/03 06:24:59;;;;;;;5.20;1.08;;;;;;;14.25;77.25;100707.25;6343172;22;20015;-73
2022/07/03 06:27:24;;;;;;;7.95;1.00;;;;;;;14.27;77.17;100704.22;6314358;22;20041;-73
2022/07/03 06:29:50;;;;;;;9.77;1.30;;;;;;;14.33;77.43;100703.09;6340941;22;20005;-74
2022/07/03 06:32:19;;;;;;;2.55;0.73;;;;;;;14.47;77.48;100715.09;6265322;22;20017;-73
2022/07/03 06:34:54;;;;;;;;;;;;;;;;;;;;;
2022/07/03 06:37:30;;;;;;;4.00;0.82;;;;;;;14.46;76.76;100702.44;6319141;22;20029;-74
2022/07/03 06:40:14;;;;;;;7.72;0.90;;;;;;;14.32;77.18;100701.44;6342315;22;20020;-75
2022/07/03 06:45:49;;;;;;;3.97;0.73;;;;;;;13.98;78.31;100684.88;6317732;22;20097;-74
2022/07/03 06:48:17;;;;;;;10.90;1.38;;;;;;;14.18;78.23;100705.91;6316901;22;20002;-74
2022/07/03 06:50:45;;;;;;;4.78;0.75;;;;;;;14.29;77.89;100708.34;6339864;22;19995;-74
2022/07/03 06:53:11;;;;;;;2.15;0.80;;;;;;;14.31;77.16;100706.13;6316555;22;20030;-74
2022/07/03 06:55:36;;;;;;;6.25;1.13;;;;;;;14.58;76.73;100715.84;6342036;22;20013;-76
2022/07/03 06:58:02;;;;;;;8.35;1.10;;;;;;;14.84;75.77;100719.25;6316705;22;20029;-74
2022/07/03 07:00:43;;;;;;;7.05;1.60;;;;;;;14.98;75.32;100702.91;6315827;22;20018;-73
2022/07/03 07:03:20;;;;;;;2.38;1.00;;;;;;;15.08;74.25;100696.47;6344048;22;20006;-75
2022/07/03 07:05:48;;;;;;;5.68;1.00;;;;;;;15.27;73.54;100693.00;6291008;22;20011;-75
2022/07/03 07:08:31;;;;;;;2.28;0.90;;;;;;;15.79;72.63;100710.66;6316390;22;20085;-77
2022/07/03 07:11:26;;;;;;;4.68;1.15;;;;;;;16.07;70.65;100713.59;6343630;22;19999;-75
2022/07/03 07:14:11;;;;;;;5.13;1.02;;;;;;;16.30;70.38;100736.75;6314295;22;20003;-75
2022/07/03 07:16:40;;;;;;;6.43;1.17;;;;;;;16.04;70.29;100705.94;6315215;22;20014;-75
2022/07/03 07:19:10;;;;;;;4.30;0.93;;;;;;;15.94;70.93;100728.94;6313991;22;20021;-75
2022/07/03 07:21:49;;;;;;;;;;;;;;;;;;;;;
2022/07/03 07:24:17;;;;;;;3.22;0.80;;;;;;;15.41;72.76;100740.81;6341944;22;20378;-74
2022/07/03 07:26:42;;;;;;;4.85;0.80;;;;;;;15.12;72.96;100725.09;6288371;22;20068;-74
2022/07/03 07:29:08;;;;;;;1.73;0.60;;;;;;;15.14;73.50;100736.66;6314896;22;20003;-74
2022/07/03 07:31:33;;;;;;;7.35;1.13;;;;;;;15.42;73.21;100747.97;6287467;22;20140;-74
2022/07/03 07:33:59;;;;;;;4.22;1.00;;;;;;;15.74;71.61;100743.78;6316060;22;20071;-74
2022/07/03 07:36:27;;;;;;;2.45;0.55;;;;;;;16.01;70.12;100723.06;6314272;22;20010;-76
2022/07/03 07:38:54;;;;;;;3.05;0.73;;;;;;;16.46;69.18;100729.06;6315975;22;20003;-74
2022/07/03 07:41:20;;;;;;;4.75;0.73;;;;;;;16.96;67.11;100725.84;6312644;22;20010;-74
2022/07/03 07:43:45;;;;;;;1.63;0.55;;;;;;;17.53;65.62;100733.94;6313756;22;20010;-74
2022/07/03 07:46:18;;;;;;;2.47;0.70;;;;;;;18.00;63.89;100746.91;6342563;22;20032;-75
2022/07/03 07:48:44;;;;;;;3.58;0.63;;;;;;;18.14;62.72;100754.06;6341893;22;20498;-75
2022/07/03 07:51:12;;;;;;;2.83;0.70;;;;;;;18.13;63.27;100746.06;6318051;22;20091;-75
2022/07/03 07:53:38;;;;;;;7.75;1.17;;;;;;;17.93;62.79;100753.69;6314328;22;20003;-76
2022/07/03 07:56:16;;;;;;;3.30;0.70;;;;;;;17.44;64.05;100763.44;6293176;22;20052;-75
2022/07/03 07:59:23;;;;;;;7.78;1.25;;;;;;;16.92;65.82;100758.78;6314811;22;20013;-76
2022/07/03 08:07:49;;;;;;;3.42;0.90;;;;;;;17.15;66.39;100761.72;6340043;22;20021;-76
2022/07/03 08:10:15;;;;;;;3.92;0.88;;;;;;;17.55;65.50;100767.66;6319346;22;20014;-76
2022/07/03 08:15:45;;;;;;;2.13;0.40;;;;;;;18.37;62.38;100733.94;6252937;23;20139;-79
2022/07/03 08:18:42;;;;;;;2.08;0.73;;;;;;;18.69;60.63;100737.63;6315643;22;20117;-77
2022/07/03 08:21:36;;;;;;;3.45;0.70;;;;;;;19.05;60.16;100747.91;6319132;22;20010;-79
2022/07/03 08:24:09;;;;;;;4.13;0.53;;;;;;;19.27;58.71;100760.91;6319940;22;20002;-78
2022/07/03 08:27:14;;;;;;;4.05;0.57;;;;;;;19.21;58.94;100757.44;6318895;22;20295;-77
2022/07/03 08:29:46;;;;;;;3.92;0.65;;;;;;;18.75;60.55;100744.69;6305336;22;20371;-78
2022/07/03 08:32:25;;;;;;;1.95;0.70;;;;;;;18.62;60.27;100724.25;6323816;22;20006;-76
2022/07/03 08:34:53;;;;;;;2.47;0.65;;;;;;;18.47;61.17;100730.94;6317244;22;20018;-75
2022/07/03 08:37:19;;;;;;;2.17;0.75;;;;;;;18.50;61.79;100755.25;6318772;22;20078;-78
2022/07/03 08:39:44;;;;;;;2.50;0.68;;;;;;;18.23;62.35;100739.50;6345362;22;20009;-77
2022/07/03 08:42:26;;;;;;;1.38;0.60;;;;;;;18.26;61.91;100742.47;6318972;22;19999;-78
2022/07/03 08:45:03;;;;;;;4.45;1.33;;;;;;;18.34;61.45;100735.41;6316301;22;20393;-74
2022/07/03 08:47:58;;;;;;;4.55;0.50;;;;;;;18.56;61.82;100748.47;6321334;22;19995;-76
2022/07/03 08:50:51;;;;;;;5.57;0.63;;;;;;;18.98;60.28;100745.56;6248793;23;20004;-75
2022/07/03 08:53:44;;;;;;;2.80;0.40;;;;;;;19.15;59.31;100742.09;6346891;22;20003;-75
2022/07/03 08:56:22;;;;;;;;;;;;;;;;;;;;;
2022/07/03 08:59:40;;;;;;;;;;;;;;;;;;;;;
2022/07/03 09:03:08;;;;;;;;;;;;;;;;;;;;;
2022/07/03 09:05:42;;;;;;;1.75;0.43;;;;;;;19.64;55.17;100731.91;6333616;22;20031;-77
2022/07/03 09:08:33;;;;;;;2.10;0.60;;;;;;;19.47;55.63;100754.81;6319748;22;20026;-83
2022/07/03 09:11:28;;;;;;;2.50;0.68;;;;;;;19.08;56.62;100725.09;6315978;22;20007;-76
2022/07/03 09:14:17;;;;;;;;;;;;;;;19.50;56.35;100761.69;6307026;22;20026;-75
2022/07/03 09:16:49;;;;;;;1.73;0.60;;;;;;;19.92;54.29;100734.50;6343149;22;19906;-74
2022/07/03 09:19:21;;;;;;;1.83;0.47;;;;;;;20.75;53.49;100730.88;6289497;22;20060;-74
2022/07/03 09:21:49;;;;;;;1.00;0.25;;;;;;;22.08;52.41;100755.22;6343905;22;20400;-77
2022/07/03 09:24:19;;;;;;;1.13;0.50;;;;;;;22.96;50.64;100751.81;6316441;22;20007;-75
2022/07/03 09:26:52;;;;;;;3.30;0.40;;;;;;;23.57;50.35;100750.34;6316470;22;20032;-76
2022/07/03 09:29:17;;;;;;;0.52;0.28;;;;;;;24.01;48.50;100745.09;6316326;22;20018;-76
2022/07/03 09:31:53;;;;;;;1.27;0.47;;;;;;;24.34;47.48;100746.88;6317833;22;19999;-75
2022/07/03 09:34:21;;;;;;;1.75;0.47;;;;;;;24.45;44.38;100759.22;6316949;22;20013;-75
2022/07/03 09:36:49;;;;;;;1.05;0.47;;;;;;;23.72;45.00;100746.91;6344886;22;19999;-74
2022/07/03 09:39:23;;;;;;;3.17;1.17;;;;;;;22.97;46.81;100761.81;6315677;22;20034;-76
2022/07/03 09:41:58;;;;;;;2.83;0.60;;;;;;;21.60;50.27;100748.06;6315067;22;20033;-73
2022/07/03 09:44:45;;;;;;;3.72;0.55;;;;;;;20.64;53.08;100746.19;6317371;22;20337;-75
2022/07/03 09:47:16;;;;;;;3.75;0.60;;;;;;;20.14;54.06;100749.41;6315048;22;19994;-75
2022/07/03 09:49:52;;;;;;;2.65;1.10;;;;;;;19.77;54.64;100759.84;6319056;22;20370;-73
2022/07/03 10:03:04;;;;;;;0.40;0.30;;;;;;;22.04;52.59;100770.94;6241273;22;20102;-74
2022/07/03 10:05:39;;;;;;;3.30;0.73;;;;;;;22.74;49.32;100762.16;6342948;22;19999;-75
2022/07/03 10:08:13;;;;;;;1.20;0.55;;;;;;;23.59;47.40;100757.22;6316394;22;20019;-74
2022/07/03 10:10:56;;;;;;;2.13;0.57;;;;;;;24.65;45.02;100785.41;6313521;22;20079;-75
2022/07/03 10:13:23;;;;;;;3.05;0.73;;;;;;;24.07;44.07;100785.56;6290016;22;20007;-75
2022/07/03 10:15:49;;;;;;;1.48;0.60;;;;;;;23.27;44.24;100786.81;6314304;22;20003;-75
2022/07/03 10:18:19;;;;;;;2.75;0.60;;;;;;;22.40;45.01;100780.78;6317477;22;20009;-75
2022/07/03 10:20:47;;;;;;;3.13;1.02;;;;;;;21.89;46.60;100771.50;6292586;22;20014;-74
2022/07/03 10:23:15;;;;;;;2.10;0.60;;;;;;;22.01;45.54;100784.75;6316851;22;20091;-74
2022/07/03 10:25:42;;;;;;;1.70;0.43;;;;;;;25.18;40.35;100782.53;6318164;22;19999;-74
2022/07/03 10:28:11;;;;;;;2.85;0.60;;;;;;;26.53;36.30;100785.53;6343210;22;20005;-75
2022/07/03 10:30:37;;;;;;;2.25;0.43;;;;;;;28.79;32.97;100792.81;6291527;22;20002;-75
2022/07/03 10:33:02;;;;;;;2.38;0.80;;;;;;;32.99;27.53;100797.97;6316552;22;20007;-75
2022/07/03 10:35:33;;;;;;;0.50;0.22;;;;;;;37.07;23.15;100802.09;6344850;22;19999;-74
2022/07/03 10:38:16;;;;;;;1.35;0.47;;;;;;;39.41;19.68;100785.28;6315564;22;20020;-73
2022/07/03 10:46:31;;;;;;;0.55;0.30;;;;;;;45.21;15.41;100784.69;6344639;22;20013;-74
2022/07/03 10:48:57;;;;;;;1.35;0.50;;;;;;;44.95;13.52;100785.31;6314197;22;20009;-75
2022/07/03 10:51:23;;;;;;;0.80;0.30;;;;;;;39.62;16.92;100771.53;6345548;22;20321;-75
2022/07/03 10:53:49;;;;;;;1.38;0.30;;;;;;;35.74;21.38;100762.69;6316385;22;20362;-75
2022/07/03 10:56:20;;;;;;;0.68;0.35;;;;;;;33.27;23.86;100765.06;6291770;22;20041;-74
2022/07/03 10:58:59;;;;;;;1.02;0.38;;;;;;;35.75;20.86;100759.41;6315679;22;20003;-76
2022/07/03 11:01:29;;;;;;;0.52;0.30;;;;;;;37.56;19.20;100770.84;6316825;22;20011;-75
2022/07/03 11:04:01;;;;;;;0.60;0.20;;;;;;;36.43;20.67;100756.59;6315793;22;20370;-74
2022/07/03 11:06:42;;;;;;;1.25;0.30;;;;;;;33.85;23.67;100766.25;6314956;22;20440;-73
2022/07/03 11:09:09;;;;;;;2.92;0.57;;;;;;;31.66;26.21;100765.06;6311832;22;20006;-75
2022/07/03 11:11:59;;;;;;;3.47;0.50;;;;;;;29.35;28.65;100760.91;6314051;22;20003;-75
2022/07/03 11:14:29;;;;;;;2.47;0.60;;;;;;;26.97;31.88;100754.44;6314039;22;20338;-76
2022/07/03 11:17:21;;;;;;;0.90;0.35;;;;;;;25.65;34.17;100763.41;6317334;22;20082;-75
2022/07/03 11:22:59;;;;;;;1.63;0.40;;;;;;;24.45;37.21;100748.03;6342680;22;20066;-75
2022/07/03 11:25:25;;;;;;;1.95;0.40;;;;;;;24.38;37.88;100759.00;6345091;22;20418;-76
2022/07/03 11:27:53;;;;;;;2.42;0.55;;;;;;;24.43;38.12;100769.94;6314198;22;20017;-74
2022/07/03 11:30:21;;;;;;;2.83;0.75;;;;;;;24.36;40.81;100772.53;6316239;22;20007;-75
2022/07/03 11:32:57;;;;;;;4.18;0.75;;;;;;;24.01;41.09;100767.41;6314343;22;20491;-73
2022/07/03 11:35:47;;;;;;;3.08;0.85;;;;;;;23.98;41.28;100784.88;6343229;22;20003;-75
2022/07/03 11:38:15;;;;;;;2.95;0.73;;;;;;;23.62;42.16;100778.06;6333476;22;20030;-76
2022/07/03 11:40:51;;;;;;;1.33;0.90;;;;;;;23.35;42.43;100769.19;6316330;22;20006;-75
2022/07/03 11:43:16;;;;;;;1.63;0.50;;;;;;;23.20;43.12;100773.41;6315399;22;20444;-74
2022/07/03 11:45:46;;;;;;;2.55;0.60;;;;;;;23.09;42.78;100769.41;6310690;22;20031;-75
2022/07/03 11:48:14;;;;;;;8.50;0.77;;;;;;;23.14;43.13;100770.03;6315208;22;20011;-76
2022/07/03 11:50:45;;;;;;;3.22;0.90;;;;;;;23.49;42.92;100775.22;6313648;22;20925;-75
2022/07/03 11:53:21;;;;;;;5.97;1.00;;;;;;;24.01;42.62;100790.56;6317904;22;19999;-76
2022/07/03 11:55:58;;;;;;;3.45;0.80;;;;;;;24.49;40.67;100774.13;6315880;22;19999;-76
2022/07/03 11:58:25;;;;;;;2.45;0.55;;;;;;;24.39;39.98;100794.97;6314957;22;19999;-76
2022/07/03 12:00:54;;;;;;;3.63;0.40;;;;;;;23.95;40.63;100791.97;6313714;22;20471;-75
2022/07/03 12:03:25;;;;;;;3.67;0.77;;;;;;;23.68;40.92;100782.25;6317357;22;20006;-75
2022/07/03 12:05:56;;;;;;;4.05;1.10;;;;;;;23.35;44.32;100785.91;6339333;22;20023;-73
2022/07/03 12:08:33;;;;;;;3.40;1.23;;;;;;;23.42;44.88;100797.34;6315675;22;20314;-75
2022/07/03 12:11:08;;;;;;;5.45;1.42;;;;;;;23.31;45.43;100793.34;6313460;22;19998;-74
2022/07/03 12:13:36;;;;;;;4.70;0.90;;;;;;;23.30;45.29;100795.28;6343811;22;20068;-76
2022/07/03 12:16:14;;;;;;;4.18;1.05;;;;;;;23.69;44.21;100803.44;6313703;22;20056;-75
2022/07/03 12:18:53;;;;;;;6.57;1.23;;;;;;;23.96;42.53;100795.56;6315876;22;20037;-74
2022/07/03 12:21:22;;;;;;;4.25;1.13;;;;;;;25.75;39.40;100796.47;6343517;22;20045;-74
2022/07/03 12:23:52;;;;;;;4.97;1.10;;;;;;;31.57;31.01;100813.50;6316618;22;20003;-74
2022/07/03 12:26:38;;;;;;;2.28;0.90;;;;;;;33.36;25.63;100833.41;6340673;22;20306;-73
2022/07/03 12:29:08;;;;;;;1.77;0.68;;;;;;;31.44;27.24;100804.56;6289703;22;20022;-74
2022/07/03 12:31:39;;;;;;;0.98;0.50;;;;;;;30.01;30.06;100816.69;6314228;22;20006;-76
2022/07/03 12:34:07;;;;;;;1.77;0.80;;;;;;;29.07;30.93;100798.81;6344112;22;20003;-75
2022/07/03 12:36:33;;;;;;;2.28;0.80;;;;;;;28.25;32.05;100809.69;6289604;22;20013;-74
2022/07/03 12:39:00;;;;;;;1.52;0.60;;;;;;;27.05;34.53;100811.53;6317886;22;20074;-75
2022/07/03 12:41:28;;;;;;;4.55;0.63;;;;;;;25.91;36.66;100805.69;6343178;22;20003;-75
2022/07/03 12:43:55;;;;;;;1.63;0.45;;;;;;;25.12;37.84;100797.97;6317356;22;20002;-75
2022/07/03 12:46:28;;;;;;;2.15;0.73;;;;;;;24.67;39.01;100818.63;6293875;22;20030;-75
2022/07/03 12:48:56;;;;;;;0.90;0.43;;;;;;;24.47;39.96;100800.78;6315891;22;20078;-75
2022/07/03 12:51:46;;;;;;;4.97;0.60;;;;;;;24.87;38.91;100814.03;6318421;22;20021;-74
2022/07/03 12:54:21;;;;;;;4.95;0.60;;;;;;;25.57;38.30;100808.00;6318467;22;20017;-75
2022/07/03 13:00:19;;;;;;;2.08;0.63;;;;;;;26.90;35.91;100809.63;6346492;22;20013;-75
2022/07/03 13:02:49;;;;;;;3.80;0.82;;;;;;;27.85;35.62;100813.84;6318226;22;19999;-75
2022/07/03 13:05:22;;;;;;;1.50;0.70;;;;;;;29.01;32.30;100822.03;6318654;22;20009;-75
2022/07/03 13:07:51;;;;;;;1.98;0.55;;;;;;;29.09;31.91;100818.13;6343894;22;20015;-75
2022/07/03 13:10:20;;;;;;;2.08;0.50;;;;;;;29.35;32.52;100813.59;6347254;22;20007;-75
2022/07/03 13:12:57;;;;;;;1.33;0.63;;;;;;;29.64;31.85;100817.53;6314237;22;20011;-75
2022/07/03 13:15:28;;;;;;;3.30;0.77;;;;;;;32.74;26.82;100806.53;6317215;22;20010;-74
2022/07/03 13:17:54;;;;;;;1.13;0.52;;;;;;;37.46;20.98;100811.84;6341330;22;20007;-75
2022/07/03 13:20:42;;;;;;;1.20;0.40;;;;;;;40.28;18.06;100813.88;6318059;22;20014;-75
2022/07/03 13:23:10;;;;;;;2.05;0.55;;;;;;;44.52;14.68;100824.34;6344525;22;20085;-75
2022/07/03 13:25:55;;;;;;;;;;;;;;;;;;;;;
2022/07/03 13:28:30;;;;;;;2.28;0.63;;;;;;;41.81;15.37;100817.03;6344293;22;20025;-74
2022/07/03 13:30:58;;;;;;;1.60;0.30;;;;;;;37.48;19.06;100809.31;6343149;22;20089;-74
2022/07/03 13:33:23;;;;;;;0.70;0.32;;;;;;;33.31;22.91;100794.16;6315475;22;19997;-74
2022/07/03 13:35:49;;;;;;;1.83;0.60;;;;;;;30.15;27.79;100789.78;6316228;22;20005;-75
2022/07/03 13:38:14;;;;;;;0.68;0.35;;;;;;;28.25;30.77;100780.78;6315314;22;20064;-76
2022/07/03 13:40:40;;;;;;;1.42;0.55;;;;;;;27.02;33.29;100800.25;6346206;22;20006;-75
2022/07/03 13:43:14;;;;;;;1.00;0.50;;;;;;;25.73;35.61;100777.22;6348044;22;19999;-74
2022/07/03 13:45:40;;;;;;;2.28;0.52;;;;;;;24.85;38.61;100800.41;6293538;22;20010;-74
2022/07/03 13:48:06;;;;;;;2.08;0.55;;;;;;;23.68;41.94;100779.47;6345987;22;20002;-73
2022/07/03 13:50:31;;;;;;;2.97;0.75;;;;;;;22.87;44.26;100799.28;6344436;22;19999;-75
2022/07/03 13:52:57;;;;;;;1.05;0.57;;;;;;;22.17;47.77;100804.47;6316217;22;20423;-75
2022/07/03 13:55:31;;;;;;;2.78;0.65;;;;;;;21.38;49.93;100786.06;6315053;22;20009;-73
2022/07/03 13:58:09;;;;;;;;;;;;;;;;;;;;;
2022/07/03 14:00:37;;;;;;;1.73;0.60;;;;;;;20.96;51.05;100782.19;6342085;22;20051;-75
2022/07/03 14:03:03;;;;;;;1.17;0.60;;;;;;;21.18;50.93;100781.19;6294975;22;20002;-74
2022/07/03 14:05:29;;;;;;;1.95;0.77;;;;;;;21.41;50.59;100796.53;6344852;22;20006;-74
2022/07/03 14:07:54;;;;;;;1.05;0.43;;;;;;;21.39;49.88;100793.28;6317749;22;20093;-75
2022/07/03 14:10:25;;;;;;;2.08;0.50;;;;;;;21.16;50.69;100800.16;6290584;22;20007;-75
2022/07/03 14:13:00;;;;;;;1.45;0.40;;;;;;;20.91;51.05;100797.09;6315652;22;20014;-75
2022/07/03 14:15:25;;;;;;;1.33;0.68;;;;;;;20.94;51.73;100804.78;6316059;22;20002;-76
2022/07/03 14:17:50;;;;;;;2.47;0.95;;;;;;;20.88;51.69;100786.59;6286860;22;20002;-74
2022/07/03 14:20:16;;;;;;;0.98;0.40;;;;;;;21.20;51.28;100801.97;6293390;22;20444;-75
2022/07/03 14:22:42;;;;;;;1.33;0.45;;;;;;;21.48;49.81;100809.94;6316748;22;20030;-76
2022/07/03 14:25:09;;;;;;;3.13;0.60;;;;;;;21.63;48.13;100813.38;6346125;22;20089;-75
2022/07/03 14:33:09;;;;;;;1.15;0.40;;;;;;;21.60;46.01;100798.16;6344361;22;20596;-75
2022/07/03 14:35:36;;;;;;;0.68;0.30;;;;;;;21.79;46.08;100809.72;6343802;22;20067;-74
2022/07/03 14:38:02;;;;;;;2.53;0.30;;;;;;;22.17;45.39;100815.63;6314979;22;20014;-73
2022/07/03 14:40:27;;;;;;;0.95;0.40;;;;;;;22.67;43.63;100798.13;6315845;22;20311;-74
2022/07/03 14:42:53;;;;;;;1.02;0.40;;;;;;;24.14;41.51;100836.09;6316578;22;20013;-75
2022/07/03 14:45:26;;;;;;;0.45;0.30;;;;;;;25.77;38.35;100816.50;6264553;22;20011;-75
2022/07/03 14:47:51;;;;;;;1.52;0.40;;;;;;;25.93;37.45;100820.16;6316740;22;20007;-75